createdAt,value
2022-07-27T00:00:05.831Z,100120.44
2022-07-27T00:05:27.713Z,100112.28
2022-07-27T00:10:50.524Z,100118.16
2022-07-27T00:16:12.508Z,100121.00
2022-07-27T00:21:34.405Z,100127.38
2022-07-27T00:26:59.422Z,100134.59
2022-07-27T00:32:21.252Z,100122.16
2022-07-27T00:37:43.080Z,100133.03
2022-07-27T00:43:04.969Z,100137.31
2022-07-27T00:48:27.280Z,100136.38
2022-07-27T00:53:51.229Z,100150.09
2022-07-27T00:59:14.507Z,100167.78
2022-07-27T01:04:37.323Z,100163.38
2022-07-27T01:10:00.018Z,100160.19
2022-07-27T01:15:22.283Z,100176.31
2022-07-27T01:20:44.110Z,100169.13
2022-07-27T01:26:05.966Z,100171.06
2022-07-27T01:31:28.998Z,100178.13
2022-07-27T01:36:52.126Z,100171.41
2022-07-27T01:42:13.946Z,100181.38
2022-07-27T01:47:35.790Z,100173.16
2022-07-27T01:52:57.632Z,100180.53
2022-07-27T01:58:19.631Z,100177.41
2022-07-27T02:03:41.487Z,100180.69
2022-07-27T02:09:03.551Z,100190.94
2022-07-27T02:14:25.427Z,100203.06
2022-07-27T02:19:47.290Z,100197.19
2022-07-27T02:25:10.328Z,100197.19
2022-07-27T02:30:32.455Z,100197.03
2022-07-27T02:35:54.309Z,100211.63
2022-07-27T02:41:16.152Z,100206.66
2022-07-27T02:46:38.048Z,100213.69
2022-07-27T02:51:59.934Z,100216.31
2022-07-27T02:57:21.748Z,100212.81
2022-07-27T03:02:47.771Z,100217.75
2022-07-27T03:08:09.759Z,100226.75
2022-07-27T03:13:31.938Z,100232.66
2022-07-27T03:18:53.800Z,100245.00
2022-07-27T03:24:15.589Z,100250.13
2022-07-27T03:29:37.443Z,100262.38
2022-07-27T03:34:59.295Z,100269.38
2022-07-27T03:40:21.374Z,100280.56
2022-07-27T03:45:43.298Z,100279.94
2022-07-27T03:51:05.338Z,100285.69
2022-07-27T03:56:27.191Z,100288.75
2022-07-27T04:01:48.986Z,100296.13
2022-07-27T04:07:10.814Z,100292.50
2022-07-27T04:12:32.766Z,100291.22
2022-07-27T04:17:57.952Z,100307.16
2022-07-27T04:23:19.887Z,100317.28
2022-07-27T04:28:41.806Z,100322.28
2022-07-27T04:34:03.612Z,100324.19
2022-07-27T04:39:25.422Z,100335.25
2022-07-27T04:44:47.219Z,100319.19
2022-07-27T04:50:09.119Z,100328.88
2022-07-27T04:55:30.911Z,100330.75
2022-07-27T05:00:52.746Z,100331.31
2022-07-27T05:06:14.607Z,100330.50
2022-07-27T05:11:36.448Z,100314.28
2022-07-27T05:16:58.392Z,100327.56
2022-07-27T05:22:20.230Z,100316.34
2022-07-27T05:27:54.061Z,100323.06
2022-07-27T05:33:16.656Z,100318.25
2022-07-27T05:38:39.750Z,100332.31
2022-07-27T05:44:01.549Z,100335.84
2022-07-27T05:49:23.539Z,100337.44
2022-07-27T05:54:45.401Z,100349.78
2022-07-27T06:00:08.909Z,100357.75
2022-07-27T06:05:30.746Z,100352.13
2022-07-27T06:10:52.591Z,100357.97
2022-07-27T06:16:14.448Z,100351.78
2022-07-27T06:21:36.518Z,100369.75
2022-07-27T06:26:58.357Z,100368.94
2022-07-27T06:32:20.187Z,100363.03
2022-07-27T06:37:42.030Z,100363.81
2022-07-27T06:43:03.985Z,100358.69
2022-07-27T06:48:26.190Z,100360.69
2022-07-27T06:53:47.997Z,100364.69
2022-07-27T06:59:10.149Z,100364.25
2022-07-27T07:04:32.247Z,100350.19
2022-07-27T07:09:54.135Z,100366.38
2022-07-27T07:15:15.946Z,100355.03
2022-07-27T07:20:38.441Z,100358.81
2022-07-27T07:26:00.304Z,100358.53
2022-07-27T07:31:22.145Z,100351.53
2022-07-27T07:36:44.010Z,100358.47
2022-07-27T07:42:05.824Z,100364.06
2022-07-27T07:47:32.983Z,100364.75
2022-07-27T07:52:55.232Z,100362.44
2022-07-27T07:58:17.082Z,100347.97
2022-07-27T08:03:39.053Z,100366.19
2022-07-27T08:09:00.903Z,100371.53
2022-07-27T08:14:22.859Z,100357.94
2022-07-27T08:19:44.771Z,100370.19
2022-07-27T08:25:08.260Z,100353.88
2022-07-27T08:30:30.474Z,100368.56
2022-07-27T08:35:54.853Z,100364.72
2022-07-27T08:41:22.193Z,100376.41
2022-07-27T08:46:44.953Z,100377.03
2022-07-27T08:52:09.281Z,100383.91
2022-07-27T08:57:31.163Z,100382.50
2022-07-27T09:02:53.261Z,100385.44
2022-07-27T09:08:17.552Z,100392.84
2022-07-27T09:13:39.316Z,100397.94
2022-07-27T09:19:08.409Z,100380.84
2022-07-27T09:24:46.133Z,100400.81
2022-07-27T09:30:16.272Z,100400.50
2022-07-27T09:35:38.174Z,100400.50
2022-07-27T09:41:01.409Z,100401.75
2022-07-27T09:46:40.846Z,100390.88
2022-07-27T09:52:04.517Z,100388.84
2022-07-27T09:57:26.516Z,100402.78
2022-07-27T10:02:49.715Z,100384.59
2022-07-27T10:08:11.752Z,100395.72
2022-07-27T10:13:43.459Z,100402.88
2022-07-27T10:19:08.592Z,100411.28
2022-07-27T10:24:32.474Z,100409.34
2022-07-27T10:29:55.425Z,100404.38
2022-07-27T10:35:46.747Z,100403.19
2022-07-27T10:41:28.391Z,100419.81
2022-07-27T10:47:04.253Z,100411.16
2022-07-27T10:53:02.603Z,100402.38
2022-07-27T10:58:24.360Z,100410.09
2022-07-27T11:03:47.053Z,100414.63
2022-07-27T11:14:53.223Z,100399.69
2022-07-27T11:20:15.048Z,100386.47
2022-07-27T11:25:36.956Z,100392.44
2022-07-27T11:31:03.194Z,100376.03
2022-07-27T11:36:42.575Z,100386.00
2022-07-27T11:42:09.011Z,100385.56
2022-07-27T11:47:34.343Z,100392.75
2022-07-27T11:53:01.443Z,100407.16
2022-07-27T11:58:23.767Z,100405.19
2022-07-27T12:03:46.998Z,100395.63
2022-07-27T12:09:13.095Z,100398.41
2022-07-27T12:14:42.586Z,100396.84
2022-07-27T12:20:09.502Z,100399.44
2022-07-27T12:25:31.313Z,100393.38
2022-07-27T12:30:53.254Z,100395.28
2022-07-27T12:36:25.986Z,100388.09
2022-07-27T12:41:47.814Z,100400.03
2022-07-27T12:47:10.698Z,100390.31
2022-07-27T12:52:34.558Z,100388.47
2022-07-27T12:57:57.228Z,100396.00
2022-07-27T13:03:19.344Z,100398.75
2022-07-27T13:08:41.152Z,100398.28
2022-07-27T13:14:02.988Z,100381.75
2022-07-27T13:19:24.848Z,100386.56
2022-07-27T13:24:46.700Z,100374.50
2022-07-27T13:30:11.509Z,100374.81
2022-07-27T13:35:33.393Z,100380.28
2022-07-27T13:40:55.382Z,100373.25
2022-07-27T13:46:17.267Z,100381.94
2022-07-27T13:51:39.564Z,100372.84
2022-07-27T13:57:01.387Z,100368.53
2022-07-27T14:02:25.204Z,100373.09
2022-07-27T14:07:47.754Z,100355.91
2022-07-27T14:13:12.345Z,100357.84
2022-07-27T14:18:34.725Z,100355.81
2022-07-27T14:23:56.537Z,100369.53
2022-07-27T14:29:19.228Z,100366.38
2022-07-27T14:34:41.091Z,100373.97
2022-07-27T14:40:05.089Z,100367.25
2022-07-27T14:45:45.141Z,100364.44
2022-07-27T14:51:08.205Z,100365.22
2022-07-27T14:56:30.051Z,100361.28
2022-07-27T15:01:51.990Z,100368.25
2022-07-27T15:07:13.961Z,100349.19
2022-07-27T15:12:38.033Z,100346.03
2022-07-27T15:18:00.074Z,100354.06
2022-07-27T15:23:21.917Z,100351.31
2022-07-27T15:28:44.057Z,100349.13
2022-07-27T15:34:05.962Z,100358.97
2022-07-27T15:39:27.784Z,100354.66
2022-07-27T15:44:49.635Z,100357.38
2022-07-27T15:50:11.493Z,100358.91
2022-07-27T15:55:33.806Z,100355.47
2022-07-27T16:00:57.684Z,100357.00
2022-07-27T16:06:20.204Z,100356.16
2022-07-27T16:11:42.177Z,100358.34
2022-07-27T16:17:04.045Z,100348.38
2022-07-27T16:22:25.864Z,100342.22
2022-07-27T16:27:47.669Z,100337.59
2022-07-27T16:33:09.503Z,100338.75
2022-07-27T16:38:31.429Z,100335.66
2022-07-27T16:43:53.301Z,100344.88
2022-07-27T16:49:15.876Z,100323.75
2022-07-27T16:54:39.855Z,100333.88
2022-07-27T17:00:01.911Z,100329.44
2022-07-27T17:05:24.078Z,100332.75
2022-07-27T17:10:46.136Z,100338.56
2022-07-27T17:16:10.157Z,100337.88
2022-07-27T17:21:32.015Z,100329.41
2022-07-27T17:26:53.895Z,100322.25
2022-07-27T17:32:15.825Z,100329.78
2022-07-27T17:38:03.350Z,100315.59
2022-07-27T17:43:19.581Z,100329.09
2022-07-27T17:48:41.516Z,100331.19
2022-07-27T17:54:03.576Z,100334.84
2022-07-27T17:59:37.444Z,100343.97
2022-07-27T18:04:59.659Z,100343.41
2022-07-27T18:10:21.679Z,100343.34
2022-07-27T18:15:43.634Z,100350.03
2022-07-27T18:21:05.893Z,100352.53
2022-07-27T18:26:27.731Z,100349.78
2022-07-27T18:31:49.574Z,100335.50
2022-07-27T18:37:11.400Z,100336.72
2022-07-27T18:42:33.239Z,100355.31
2022-07-27T18:47:55.073Z,100356.97
2022-07-27T18:58:38.797Z,100377.19
2022-07-27T19:04:02.673Z,100399.22
2022-07-27T19:09:25.203Z,100399.94
2022-07-27T19:14:50.290Z,100395.50
2022-07-27T19:20:13.828Z,100407.66
2022-07-27T19:25:35.657Z,100414.19
2022-07-27T19:30:57.549Z,100415.72
2022-07-27T19:36:20.311Z,100417.25
2022-07-27T19:41:42.570Z,100417.91
2022-07-27T19:47:04.484Z,100426.97
2022-07-27T19:52:26.332Z,100432.78
2022-07-27T19:57:48.138Z,100427.19
2022-07-27T20:03:09.944Z,100464.44
2022-07-27T20:08:31.766Z,100466.38
2022-07-27T20:13:53.748Z,100479.06
2022-07-27T20:19:15.832Z,100475.81
2022-07-27T20:24:38.227Z,100484.84
2022-07-27T20:30:00.059Z,100491.34
2022-07-27T20:35:22.007Z,100483.34
2022-07-27T20:40:43.894Z,100495.50
2022-07-27T20:46:05.837Z,100501.91
2022-07-27T20:51:27.731Z,100498.22
2022-07-27T20:56:49.573Z,100513.91
2022-07-27T21:02:11.430Z,100517.56
2022-07-27T21:07:33.412Z,100532.09
2022-07-27T21:12:55.255Z,100535.84
2022-07-27T21:18:17.141Z,100536.06
2022-07-27T21:23:39.022Z,100541.31
2022-07-27T21:29:00.836Z,100543.31
2022-07-27T21:34:24.775Z,100555.16
2022-07-27T21:39:46.582Z,100548.53
2022-07-27T21:45:08.821Z,100557.91
2022-07-27T21:50:30.683Z,100570.59
2022-07-27T21:55:52.567Z,100576.47
2022-07-27T22:01:15.911Z,100594.06
2022-07-27T22:06:39.783Z,100596.56
2022-07-27T22:12:01.629Z,100593.50
2022-07-27T22:17:23.440Z,100601.75
2022-07-27T22:22:45.526Z,100597.81
2022-07-27T22:28:07.556Z,100596.47
2022-07-27T22:33:29.403Z,100598.47
2022-07-27T22:38:51.221Z,100609.00
2022-07-27T22:44:13.393Z,100612.56
2022-07-27T22:49:38.217Z,100612.63
2022-07-27T22:55:01.379Z,100615.84
2022-07-27T23:00:23.243Z,100606.06
2022-07-27T23:05:45.065Z,100628.56
2022-07-27T23:11:06.985Z,100629.34
2022-07-27T23:16:29.049Z,100635.75
2022-07-27T23:21:51.748Z,100647.44
2022-07-27T23:27:15.711Z,100639.84
2022-07-27T23:32:37.552Z,100642.94
2022-07-27T23:37:59.419Z,100640.88
2022-07-27T23:43:21.273Z,100641.38
2022-07-27T23:48:43.103Z,100669.06
2022-07-27T23:54:05.236Z,100658.78
2022-07-27T23:59:27.129Z,100663.38
